Time;durP1;ratioP1;P1;durP2;ratioP2;P2;SDS_P1;SDS_P2;PMS_P1;PMS_P2;Temp;Humidity;BMP_temperature;BMP_pressure;BME280_temperature;BME280_humidity;BME280_pressure;Samples;Min_cycle;Max_cycle;Signal;HPM_P1;HPM_P2
2022/08/03 00:01:42;;;;;;;8.25;5.22;;;20.20;99.90;;;;;;7398724;19;20022;-84
2022/08/03 00:04:09;;;;;;;14.55;5.80;;;20.20;99.90;;;;;;7396681;19;20376;-85
2022/08/03 00:06:35;;;;;;;8.65;5.22;;;20.20;99.90;;;;;;7396987;19;20014;-85
2022/08/03 00:09:01;;;;;;;12.60;5.95;;;20.10;99.90;;;;;;7396656;19;20035;-85
2022/08/03 00:11:27;;;;;;;11.43;4.60;;;20.10;99.90;;;;;;7399987;19;20022;-85
2022/08/03 00:13:53;;;;;;;9.75;4.45;;;20.10;99.90;;;;;;7398161;19;20014;-84
2022/08/03 00:16:18;;;;;;;14.70;5.13;;;20.10;99.90;;;;;;7398156;19;20014;-85
2022/08/03 00:18:44;;;;;;;7.63;4.03;;;20.10;99.90;;;;;;7397955;19;20472;-85
2022/08/03 00:21:10;;;;;;;8.13;3.78;;;20.20;99.90;;;;;;7395618;19;20517;-84
2022/08/03 00:23:36;;;;;;;10.20;4.07;;;20.20;99.90;;;;;;7397322;19;20279;-85
2022/08/03 00:26:02;;;;;;;8.80;4.22;;;20.30;99.90;;;;;;7396871;19;20486;-85
2022/08/03 00:28:28;;;;;;;11.85;4.70;;;20.30;99.90;;;;;;7395489;19;20033;-85
2022/08/03 00:30:55;;;;;;;13.18;4.82;;;20.30;99.90;;;;;;7396636;19;20014;-85
2022/08/03 00:33:21;;;;;;;8.95;4.15;;;20.30;99.90;;;;;;7398831;19;20046;-85
2022/08/03 00:35:47;;;;;;;10.68;4.93;;;20.30;99.90;;;;;;7396649;19;20086;-85
2022/08/03 00:38:13;;;;;;;10.50;5.10;;;20.20;99.90;;;;;;7397769;19;20015;-85
2022/08/03 00:40:39;;;;;;;9.60;4.55;;;20.20;99.90;;;;;;7395738;19;20356;-85
2022/08/03 00:43:07;;;;;;;10.80;4.88;;;20.20;99.90;;;;;;7396472;19;20464;-85
2022/08/03 00:45:36;;;;;;;11.25;4.03;;;20.20;99.90;;;;;;7396033;19;20031;-84
2022/08/03 00:48:04;;;;;;;7.93;3.95;;;20.20;99.90;;;;;;7394228;19;20515;-84
2022/08/03 00:50:33;;;;;;;11.50;4.60;;;20.10;99.90;;;;;;7395300;19;20015;-85
2022/08/03 00:53:04;;;;;;;8.30;4.22;;;20.10;99.90;;;;;;7395122;19;20032;-85
2022/08/03 00:55:30;;;;;;;10.20;3.45;;;20.10;99.90;;;;;;7393055;19;20031;-84
2022/08/03 00:57:58;;;;;;;9.07;3.50;;;20.00;99.90;;;;;;7394554;19;20018;-85
2022/08/03 01:00:26;;;;;;;10.18;4.32;;;20.10;99.90;;;;;;7396407;19;20074;-84
2022/08/03 01:02:53;;;;;;;6.72;3.33;;;20.10;99.90;;;;;;7396727;19;20081;-84
2022/08/03 01:05:20;;;;;;;9.55;4.45;;;20.10;99.90;;;;;;7394492;19;20011;-84
2022/08/03 01:08:04;;;;;;;9.35;3.80;;;20.00;99.90;;;;;;7394957;19;20025;-84
2022/08/03 01:10:48;;;;;;;8.68;3.60;;;19.90;99.90;;;;;;7395865;19;20011;-84
2022/08/03 01:13:23;;;;;;;6.43;2.88;;;20.00;99.90;;;;;;7396672;19;20020;-84
2022/08/03 01:16:16;;;;;;;8.10;3.72;;;20.00;99.90;;;;;;7396932;19;20018;-85
2022/08/03 01:18:59;;;;;;;7.95;3.67;;;20.00;99.90;;;;;;7395625;19;20039;-85
2022/08/03 01:21:32;;;;;;;6.30;3.07;;;19.90;99.90;;;;;;7394951;19;20018;-85
2022/08/03 01:24:35;;;;;;;7.90;3.78;;;19.90;99.90;;;;;;7395106;19;20026;-84
2022/08/03 01:27:10;;;;;;;;;;;19.90;99.90;;;;;;7395420;19;20021;-84
2022/08/03 01:29:45;;;;;;;12.85;3.78;;;19.80;99.90;;;;;;7395223;19;19922;-85
2022/08/03 01:32:39;;;;;;;7.57;3.17;;;19.70;99.90;;;;;;7396826;19;20019;-85
2022/08/03 01:35:13;;;;;;;8.38;3.58;;;19.60;99.90;;;;;;7395991;19;20019;-84
2022/08/03 01:37:46;;;;;;;7.85;2.35;;;19.70;99.90;;;;;;7394188;19;20025;-84
2022/08/03 01:40:14;;;;;;;7.28;2.55;;;19.80;99.90;;;;;;7395585;19;20042;-84
2022/08/03 01:42:41;;;;;;;11.60;2.90;;;19.80;99.90;;;;;;7394388;19;20031;-84
2022/08/03 01:45:10;;;;;;;10.18;2.78;;;19.80;99.90;;;;;;7395607;19;20038;-84
2022/08/03 01:47:38;;;;;;;11.38;3.33;;;19.80;99.90;;;;;;7396239;19;20015;-84
2022/08/03 01:50:05;;;;;;;7.90;2.70;;;19.80;99.90;;;;;;7394342;19;20097;-85
2022/08/03 01:52:32;;;;;;;9.70;2.78;;;19.80;99.90;;;;;;7392073;19;20014;-85
2022/08/03 01:55:00;;;;;;;7.80;2.60;;;19.80;99.90;;;;;;7393045;19;20385;-84
2022/08/03 01:57:29;;;;;;;6.32;2.83;;;19.70;99.90;;;;;;7395509;19;20519;-85
2022/08/03 01:59:57;;;;;;;8.50;2.55;;;19.70;99.90;;;;;;7395837;19;20014;-84
2022/08/03 02:02:24;;;;;;;9.10;2.90;;;19.70;99.90;;;;;;7396433;19;20385;-85
2022/08/03 02:04:53;;;;;;;8.80;2.75;;;19.70;99.90;;;;;;7396087;19;20034;-85
2022/08/03 02:07:19;;;;;;;7.30;2.70;;;19.70;99.90;;;;;;7394280;19;20018;-85
2022/08/03 02:09:49;;;;;;;9.27;2.97;;;19.60;99.90;;;;;;7395725;19;20018;-85
2022/08/03 02:12:16;;;;;;;8.40;2.97;;;19.60;99.90;;;;;;7392015;19;20003;-84
2022/08/03 02:14:44;;;;;;;9.68;3.30;;;19.60;99.90;;;;;;7394687;19;20041;-85
2022/08/03 02:17:13;;;;;;;5.55;2.30;;;19.60;99.90;;;;;;7392637;19;20018;-85
2022/08/03 02:19:41;;;;;;;7.85;3.15;;;19.50;99.90;;;;;;7394823;19;20031;-85
2022/08/03 02:22:09;;;;;;;8.45;3.63;;;19.50;99.90;;;;;;7394275;19;20013;-85
2022/08/03 02:24:35;;;;;;;13.48;3.17;;;19.40;99.90;;;;;;7390015;19;20104;-85
2022/08/03 02:27:15;;;;;;;10.57;3.10;;;19.40;99.90;;;;;;7392372;19;20091;-85
2022/08/03 02:29:45;;;;;;;10.45;3.05;;;19.40;99.90;;;;;;7393247;19;20038;-84
2022/08/03 02:32:15;;;;;;;11.52;2.85;;;19.30;99.90;;;;;;7395733;19;20018;-85
2022/08/03 02:34:45;;;;;;;10.85;3.25;;;19.10;99.90;;;;;;7393330;19;20006;-84
2022/08/03 02:37:13;;;;;;;12.40;3.05;;;19.00;99.90;;;;;;7392574;19;20015;-84
2022/08/03 02:39:41;;;;;;;10.00;3.17;;;18.90;99.90;;;;;;7391871;19;20014;-85
2022/08/03 02:42:09;;;;;;;5.80;2.83;;;18.70;99.90;;;;;;7394627;19;20018;-85
2022/08/03 02:44:37;;;;;;;9.00;2.75;;;18.60;99.90;;;;;;7394276;19;20052;-85
2022/08/03 02:47:07;;;;;;;7.28;2.85;;;18.60;99.90;;;;;;7393442;19;20018;-84
2022/08/03 02:49:34;;;;;;;9.63;3.15;;;18.50;99.90;;;;;;7399881;19;20014;-85
2022/08/03 02:52:01;;;;;;;6.93;3.08;;;18.50;99.90;;;;;;7401575;19;20085;-84
2022/08/03 02:54:29;;;;;;;10.15;3.40;;;18.50;99.90;;;;;;7400319;19;20121;-84
2022/08/03 02:56:57;;;;;;;9.45;3.28;;;18.60;99.90;;;;;;7396653;19;20034;-84
2022/08/03 02:59:23;;;;;;;7.88;3.70;;;18.60;99.90;;;;;;7401869;19;20665;-85
2022/08/03 03:01:50;;;;;;;9.50;4.13;;;18.70;99.90;;;;;;7400171;19;20032;-85
2022/08/03 03:04:17;;;;;;;9.52;3.35;;;18.80;99.90;;;;;;7400286;19;20491;-84
2022/08/03 03:06:43;;;;;;;12.10;3.83;;;18.80;99.90;;;;;;7396541;19;20011;-84
2022/08/03 03:09:10;;;;;;;8.77;3.83;;;18.90;99.90;;;;;;7398248;19;20416;-84
2022/08/03 03:11:39;;;;;;;10.00;4.68;;;19.00;99.90;;;;;;7400197;19;20082;-85
2022/08/03 03:14:08;;;;;;;11.27;4.30;;;18.90;99.90;;;;;;7398732;19;20018;-84
2022/08/03 03:16:35;;;;;;;8.88;2.95;;;18.80;99.90;;;;;;7397976;19;20030;-84
2022/08/03 03:19:01;;;;;;;9.95;4.70;;;18.80;99.90;;;;;;7399631;19;20031;-85
2022/08/03 03:21:29;;;;;;;8.20;4.30;;;18.70;99.90;;;;;;7395108;19;20423;-85
2022/08/03 03:23:56;;;;;;;8.25;3.92;;;18.70;99.90;;;;;;7400333;19;20494;-84
2022/08/03 03:26:22;;;;;;;7.97;5.00;;;18.60;99.90;;;;;;7397239;19;20010;-84
2022/08/03 03:28:48;;;;;;;7.13;3.63;;;18.50;99.90;;;;;;7395824;19;20044;-85
2022/08/03 03:31:14;;;;;;;10.10;4.55;;;18.50;99.90;;;;;;7401488;19;20015;-85
2022/08/03 03:33:40;;;;;;;12.02;4.68;;;18.50;99.90;;;;;;7400656;19;20074;-85
2022/08/03 03:36:06;;;;;;;11.00;4.35;;;18.40;99.90;;;;;;7396475;19;20035;-84
2022/08/03 03:38:33;;;;;;;11.05;4.03;;;18.40;99.90;;;;;;7398582;19;20030;-84
2022/08/03 03:40:59;;;;;;;10.80;4.85;;;18.50;99.90;;;;;;7400102;19;20015;-85
2022/08/03 03:43:25;;;;;;;7.75;3.75;;;18.60;99.90;;;;;;7397076;19;20441;-84
2022/08/03 03:45:52;;;;;;;11.93;4.68;;;18.70;99.90;;;;;;7399532;19;20010;-84
2022/08/03 03:48:18;;;;;;;9.35;4.43;;;18.70;99.90;;;;;;7397046;19;20042;-84
2022/08/03 03:50:45;;;;;;;10.50;4.88;;;18.70;99.90;;;;;;7398073;19;20031;-84
2022/08/03 03:53:12;;;;;;;12.57;5.30;;;18.70;99.90;;;;;;7395978;19;20025;-84
2022/08/03 03:55:39;;;;;;;12.43;4.47;;;18.70;99.90;;;;;;7396035;19;20054;-84
2022/08/03 03:58:06;;;;;;;9.20;4.63;;;18.60;99.90;;;;;;7397545;19;20047;-85
2022/08/03 04:00:33;;;;;;;10.18;4.85;;;18.50;99.90;;;;;;7397006;19;20021;-84
2022/08/03 04:02:59;;;;;;;11.13;4.47;;;18.50;99.90;;;;;;7398143;19;20028;-84
2022/08/03 04:11:09;;;;;;;9.20;4.10;;;18.50;99.90;;;;;;7398293;19;20010;-84
2022/08/03 04:13:54;;;;;;;10.00;4.60;;;18.60;99.90;;;;;;7398546;19;20086;-85
2022/08/03 04:16:25;;;;;;;12.63;4.57;;;18.60;99.90;;;;;;7397047;19;20495;-84
2022/08/03 04:19:00;;;;;;;8.57;2.85;;;18.50;99.90;;;;;;7397862;19;20368;-84
2022/08/03 04:21:27;;;;;;;10.35;4.53;;;18.50;99.90;;;;;;7394498;19;20019;-85
2022/08/03 04:23:57;;;;;;;8.13;3.42;;;18.70;99.90;;;;;;7399245;19;20382;-84
2022/08/03 04:26:28;;;;;;;11.10;4.35;;;18.80;99.90;;;;;;7393557;19;20015;-85
2022/08/03 04:28:54;;;;;;;8.13;4.00;;;18.90;99.90;;;;;;7392803;19;20022;-84
2022/08/03 04:31:22;;;;;;;8.75;3.38;;;19.00;99.90;;;;;;7399173;19;20021;-84
2022/08/03 04:33:51;;;;;;;7.88;3.45;;;19.10;99.90;;;;;;7398475;19;20386;-85
2022/08/03 04:36:22;;;;;;;7.90;3.75;;;19.10;99.90;;;;;;7394698;19;20018;-85
2022/08/03 04:39:05;;;;;;;12.15;3.63;;;19.10;99.90;;;;;;7396640;19;20021;-84
2022/08/03 04:41:32;;;;;;;;;;;19.20;99.90;;;;;;7397594;19;20086;-84
2022/08/03 04:43:59;;;;;;;11.63;4.65;;;19.30;99.90;;;;;;7395542;19;19942;-84
2022/08/03 04:46:31;;;;;;;13.80;3.95;;;19.40;99.90;;;;;;7398769;19;20015;-85
2022/08/03 04:48:58;;;;;;;10.07;4.00;;;19.40;99.90;;;;;;7396047;19;20010;-85
2022/08/03 04:51:24;;;;;;;7.07;3.00;;;19.50;99.90;;;;;;7396694;19;20349;-84
2022/08/03 04:53:50;;;;;;;12.30;3.97;;;19.60;99.90;;;;;;7394594;19;20018;-83
2022/08/03 04:56:16;;;;;;;7.40;3.72;;;19.60;99.90;;;;;;7397541;19;20011;-83
2022/08/03 04:58:43;;;;;;;9.70;3.88;;;19.70;99.90;;;;;;7397491;19;20018;-84
2022/08/03 05:01:09;;;;;;;6.97;3.10;;;19.80;99.90;;;;;;7396668;19;20014;-85
2022/08/03 05:03:35;;;;;;;6.93;3.55;;;19.90;99.90;;;;;;7396893;19;20010;-85
2022/08/03 05:06:01;;;;;;;7.35;2.80;;;20.10;99.90;;;;;;7396626;19;20014;-84
2022/08/03 05:08:26;;;;;;;14.48;4.10;;;20.20;99.90;;;;;;7394307;19;20025;-84
2022/08/03 05:10:52;;;;;;;7.20;2.88;;;20.20;99.90;;;;;;7394594;19;20023;-84
2022/08/03 05:13:18;;;;;;;7.40;3.50;;;20.20;99.90;;;;;;7393680;19;20018;-84
2022/08/03 05:15:44;;;;;;;9.20;3.63;;;20.10;99.90;;;;;;7395770;19;20042;-84
2022/08/03 05:18:10;;;;;;;9.27;2.90;;;20.10;99.90;;;;;;7397063;19;20014;-83
2022/08/03 05:20:36;;;;;;;7.85;3.55;;;20.30;99.90;;;;;;7397218;19;20010;-85
2022/08/03 05:23:02;;;;;;;8.13;2.78;;;20.40;99.90;;;;;;7395215;19;20022;-85
2022/08/03 05:25:29;;;;;;;9.27;2.55;;;20.50;99.90;;;;;;7392015;19;20018;-84
2022/08/03 05:27:55;;;;;;;12.82;3.00;;;20.60;99.90;;;;;;7394707;19;20044;-84
2022/08/03 05:30:21;;;;;;;8.32;2.72;;;20.80;99.90;;;;;;7395976;19;20011;-85
2022/08/03 05:32:47;;;;;;;9.70;2.78;;;20.70;99.90;;;;;;7397301;19;20468;-85
2022/08/03 05:35:13;;;;;;;8.32;3.05;;;20.80;99.90;;;;;;7393239;19;20018;-84
2022/08/03 05:37:38;;;;;;;15.55;3.13;;;20.80;99.90;;;;;;7395264;19;20018;-85
2022/08/03 05:40:05;;;;;;;9.35;2.83;;;20.90;99.90;;;;;;7393936;19;20356;-85
2022/08/03 05:42:31;;;;;;;8.48;2.50;;;21.00;99.90;;;;;;7396072;19;20018;-86
2022/08/03 05:44:57;;;;;;;7.20;2.53;;;21.00;99.90;;;;;;7393873;19;20021;-84
2022/08/03 05:47:23;;;;;;;7.95;2.72;;;21.10;99.90;;;;;;7394192;19;20014;-85
2022/08/03 05:49:48;;;;;;;11.35;2.80;;;21.10;99.90;;;;;;7392602;19;20484;-84
2022/08/03 05:52:14;;;;;;;8.00;2.70;;;21.10;99.90;;;;;;7396517;19;20042;-85
2022/08/03 05:54:40;;;;;;;7.80;2.35;;;21.20;99.90;;;;;;7391033;19;20356;-84
2022/08/03 05:57:06;;;;;;;12.30;2.75;;;21.20;99.90;;;;;;7393754;19;20011;-85
2022/08/03 05:59:32;;;;;;;9.82;2.53;;;21.30;99.90;;;;;;7390624;19;20039;-85
2022/08/03 06:01:58;;;;;;;9.73;3.10;;;21.30;99.90;;;;;;7393666;19;20363;-85
2022/08/03 06:04:24;;;;;;;11.77;2.60;;;21.30;99.90;;;;;;7395252;19;20015;-85
2022/08/03 06:06:50;;;;;;;10.68;2.60;;;21.30;99.90;;;;;;7394367;19;20022;-76
2022/08/03 06:09:16;;;;;;;64.60;12.23;;;21.30;99.90;;;;;;7392360;19;20007;-79
2022/08/03 06:11:42;;;;;;;23.08;4.32;;;21.30;99.90;;;;;;7393372;19;20015;-83
2022/08/03 06:14:08;;;;;;;10.25;2.90;;;21.40;99.90;;;;;;7394744;19;20048;-83
2022/08/03 06:16:34;;;;;;;8.27;2.83;;;21.60;99.90;;;;;;7393892;19;20010;-80
2022/08/03 06:19:00;;;;;;;14.13;2.50;;;22.00;99.90;;;;;;7392372;19;20023;-80
2022/08/03 06:21:26;;;;;;;10.40;2.38;;;22.00;99.90;;;;;;7391577;19;20022;-80
2022/08/03 06:23:52;;;;;;;9.75;2.97;;;22.00;99.90;;;;;;7398187;19;20116;-81
2022/08/03 06:26:18;;;;;;;10.52;2.65;;;22.00;99.90;;;;;;7399200;19;20074;-81
2022/08/03 06:28:45;;;;;;;10.30;2.45;;;22.00;99.90;;;;;;7395591;19;20040;-80
2022/08/03 06:31:11;;;;;;;7.75;2.55;;;21.90;99.90;;;;;;7402203;19;20403;-80
2022/08/03 06:33:36;;;;;;;13.02;3.33;;;21.80;99.90;;;;;;7399506;19;20022;-80
2022/08/03 06:36:02;;;;;;;12.70;2.72;;;21.70;99.90;;;;;;7400105;19;20483;-80
2022/08/03 06:38:28;;;;;;;8.15;2.63;;;21.70;99.90;;;;;;7401700;19;20018;-80
2022/08/03 06:40:54;;;;;;;9.30;2.58;;;21.80;99.90;;;;;;7400988;19;20046;-80
2022/08/03 06:43:20;;;;;;;9.48;2.83;;;21.80;99.90;;;;;;7400571;19;20018;-81
2022/08/03 06:45:46;;;;;;;8.93;2.70;;;21.80;99.90;;;;;;7401553;19;20015;-80
2022/08/03 06:48:12;;;;;;;6.32;2.65;;;21.80;99.90;;;;;;7397881;19;20019;-80
2022/08/03 06:50:43;;;;;;;7.90;2.28;;;21.80;99.90;;;;;;7401019;19;20077;-80
2022/08/03 06:53:09;;;;;;;9.68;2.53;;;21.80;99.90;;;;;;7399584;19;20074;-80
2022/08/03 06:55:35;;;;;;;12.05;2.80;;;21.90;99.90;;;;;;7400118;19;20018;-80
2022/08/03 06:58:01;;;;;;;12.80;3.20;;;22.10;99.90;;;;;;7396757;19;20025;-80
2022/08/03 07:00:29;;;;;;;8.63;2.85;;;22.60;99.90;;;;;;7401046;19;20381;-80
2022/08/03 07:02:55;;;;;;;7.93;2.38;;;23.50;99.90;;;;;;7400067;19;20018;-80
2022/08/03 07:05:21;;;;;;;11.18;2.47;;;24.00;99.90;;;;;;7399669;19;20010;-81
2022/08/03 07:07:48;;;;;;;7.45;2.10;;;24.90;99.90;;;;;;7398792;19;20014;-80
2022/08/03 07:10:14;;;;;;;8.30;1.98;;;25.60;99.90;;;;;;7398808;19;20018;-80
2022/08/03 07:12:40;;;;;;;8.55;1.90;;;26.10;99.90;;;;;;7396866;19;20015;-80
2022/08/03 07:15:07;;;;;;;5.65;2.17;;;27.00;99.90;;;;;;7395523;19;20039;-80
2022/08/03 07:17:34;;;;;;;6.95;2.38;;;27.60;99.90;;;;;;7396479;19;20019;-81
2022/08/03 07:20:02;;;;;;;7.15;1.92;;;27.40;99.90;;;;;;7399735;19;20070;-80
2022/08/03 07:22:31;;;;;;;9.10;2.17;;;27.30;99.90;;;;;;7396551;19;20014;-80
2022/08/03 07:24:57;;;;;;;7.47;2.25;;;27.00;99.90;;;;;;7396297;19;20018;-80
2022/08/03 07:27:25;;;;;;;5.75;1.83;;;27.50;99.90;;;;;;7398794;19;20014;-80
2022/08/03 07:29:51;;;;;;;8.77;2.30;;;28.10;99.90;;;;;;7399433;19;20051;-80
2022/08/03 07:32:17;;;;;;;8.05;2.10;;;28.20;99.90;;;;;;7397312;19;20527;-80
2022/08/03 07:34:43;;;;;;;4.80;2.05;;;28.50;99.90;;;;;;7397415;19;20018;-80
2022/08/03 07:37:09;;;;;;;7.53;2.20;;;28.70;99.90;;;;;;7397596;19;20019;-80
2022/08/03 07:39:34;;;;;;;9.60;3.38;;;28.90;99.90;;;;;;7398056;19;20527;-80
2022/08/03 07:42:00;;;;;;;11.27;2.65;;;29.30;99.90;;;;;;7399447;19;20483;-80
2022/08/03 07:44:26;;;;;;;6.70;2.42;;;29.60;99.90;;;;;;7397488;19;20078;-81
2022/08/03 07:46:52;;;;;;;11.35;2.63;;;30.10;99.90;;;;;;7396938;19;20010;-79
2022/08/03 07:49:18;;;;;;;9.27;2.47;;;30.40;99.90;;;;;;7396556;19;20063;-80
2022/08/03 07:51:44;;;;;;;9.57;2.08;;;30.50;99.90;;;;;;7393052;19;20019;-80
2022/08/03 07:54:09;;;;;;;8.40;2.35;;;30.70;99.90;;;;;;7392026;19;20018;-80
2022/08/03 07:56:36;;;;;;;10.48;2.35;;;31.00;99.90;;;;;;7393977;19;20356;-80
2022/08/03 07:59:02;;;;;;;5.90;2.10;;;31.10;99.90;;;;;;7394875;19;20078;-79
2022/08/03 08:01:31;;;;;;;5.55;1.95;;;30.90;99.90;;;;;;7392416;19;20086;-80
2022/08/03 08:03:57;;;;;;;5.85;1.77;;;31.20;99.80;;;;;;7396325;19;20018;-80
2022/08/03 08:06:23;;;;;;;9.50;2.38;;;31.30;99.60;;;;;;7396964;19;20022;-80
2022/08/03 08:08:49;;;;;;;4.97;1.70;;;31.20;99.60;;;;;;7391144;19;20014;-81
2022/08/03 08:11:15;;;;;;;6.47;2.00;;;30.70;99.40;;;;;;7396943;19;20027;-80
2022/08/03 08:13:41;;;;;;;6.47;1.80;;;30.60;99.90;;;;;;7392324;19;20014;-80
2022/08/03 08:16:06;;;;;;;5.60;1.75;;;30.60;99.90;;;;;;7392382;19;20037;-80
2022/08/03 08:18:33;;;;;;;7.55;1.80;;;30.60;99.90;;;;;;7387628;19;20010;-80
2022/08/03 08:21:00;;;;;;;9.18;2.28;;;30.70;99.50;;;;;;7392123;19;20029;-80
2022/08/03 08:23:26;;;;;;;5.45;2.25;;;30.10;99.90;;;;;;7392519;19;20086;-80
2022/08/03 08:25:52;;;;;;;6.90;2.22;;;30.00;99.90;;;;;;7395990;19;20467;-80
2022/08/03 08:28:19;;;;;;;7.95;2.15;;;29.90;99.90;;;;;;7393954;19;20014;-80
2022/08/03 08:30:45;;;;;;;7.70;2.42;;;29.40;99.90;;;;;;7396538;19;20018;-80
2022/08/03 08:33:11;;;;;;;7.07;1.85;;;29.00;99.90;;;;;;7396444;19;20025;-80
2022/08/03 08:35:37;;;;;;;4.88;1.50;;;29.00;99.90;;;;;;7395304;19;20360;-80
2022/08/03 08:38:03;;;;;;;6.97;2.15;;;28.90;99.90;;;;;;7396958;19;20027;-80
2022/08/03 08:40:29;;;;;;;7.55;2.25;;;29.00;99.90;;;;;;7397097;19;20487;-80
2022/08/03 08:42:55;;;;;;;6.95;2.00;;;28.70;99.90;;;;;;7397305;19;20086;-80
2022/08/03 08:45:21;;;;;;;7.63;2.20;;;28.80;99.90;;;;;;7395836;19;20042;-79
2022/08/03 08:47:49;;;;;;;7.85;2.33;;;28.50;99.90;;;;;;7392769;19;20018;-79
2022/08/03 08:50:20;;;;;;;8.70;2.25;;;27.80;99.90;;;;;;7396994;19;20025;-79
2022/08/03 08:52:48;;;;;;;6.90;2.00;;;27.20;99.90;;;;;;7398091;19;20025;-80
2022/08/03 08:55:19;;;;;;;6.50;2.45;;;26.60;99.90;;;;;;7396103;19;20463;-80
2022/08/03 08:57:54;;;;;;;8.57;2.35;;;26.30;99.90;;;;;;7396994;19;20367;-80
2022/08/03 09:00:20;;;;;;;8.60;2.20;;;26.20;99.90;;;;;;7398097;19;20032;-79
2022/08/03 09:02:47;;;;;;;8.60;1.70;;;26.00;99.90;;;;;;7394340;19;20070;-80
2022/08/03 09:05:18;;;;;;;5.30;1.90;;;25.80;99.90;;;;;;7394324;19;20022;-80
2022/08/03 09:07:45;;;;;;;7.07;1.88;;;25.70;99.90;;;;;;7394493;19;20557;-80
2022/08/03 09:10:13;;;;;;;6.00;2.25;;;25.60;99.90;;;;;;7392226;19;20046;-80
2022/08/03 09:12:45;;;;;;;9.75;2.55;;;25.70;99.90;;;;;;7396020;19;20018;-80
2022/08/03 09:15:27;;;;;;;9.00;2.00;;;25.60;99.90;;;;;;7396578;19;20029;-79
2022/08/03 09:17:55;;;;;;;9.48;2.28;;;25.70;99.90;;;;;;7392708;19;20007;-80
2022/08/03 09:20:22;;;;;;;7.65;2.20;;;25.70;99.90;;;;;;7394761;19;20441;-79
2022/08/03 09:23:00;;;;;;;7.35;2.45;;;25.70;99.90;;;;;;7394991;19;20018;-80
2022/08/03 09:25:42;;;;;;;5.68;2.00;;;25.80;99.90;;;;;;7392760;19;20007;-80
2022/08/03 09:28:13;;;;;;;6.10;2.00;;;25.90;99.90;;;;;;7393227;19;20484;-80
2022/08/03 09:30:42;;;;;;;5.85;1.92;;;25.70;99.90;;;;;;7393416;19;20010;-80
2022/08/03 09:33:12;;;;;;;7.45;2.05;;;25.70;99.90;;;;;;7395150;19;20029;-81
2022/08/03 09:35:42;;;;;;;10.73;2.80;;;25.80;99.90;;;;;;7394589;19;20022;-80
2022/08/03 09:38:09;;;;;;;7.20;2.40;;;25.90;99.90;;;;;;7394015;19;20018;-80
2022/08/03 09:40:36;;;;;;;7.95;1.88;;;26.00;99.90;;;;;;7396298;19;20073;-81
2022/08/03 09:43:01;;;;;;;6.90;1.65;;;26.10;99.90;;;;;;7395001;19;20025;-80
2022/08/03 09:45:28;;;;;;;6.10;1.90;;;26.10;99.90;;;;;;7394618;19;20089;-79
2022/08/03 09:47:56;;;;;;;9.63;2.30;;;26.10;99.90;;;;;;7392920;19;20368;-80
2022/08/03 09:50:22;;;;;;;8.48;1.90;;;26.20;99.90;;;;;;7394851;19;20011;-80
2022/08/03 09:52:50;;;;;;;8.07;2.75;;;26.20;99.90;;;;;;7391994;19;20041;-80
2022/08/03 09:55:19;;;;;;;5.47;1.80;;;26.30;99.90;;;;;;7393181;19;20029;-81
2022/08/03 09:57:45;;;;;;;8.18;2.05;;;26.30;99.90;;;;;;7392899;19;20015;-88
2022/08/03 10:00:14;;;;;;;5.32;1.50;;;26.30;99.90;;;;;;7399746;19;20022;-89
2022/08/03 10:02:42;;;;;;;4.63;1.95;;;26.40;99.90;;;;;;7403620;19;20025;-90
2022/08/03 10:05:10;;;;;;;7.50;1.95;;;26.20;99.90;;;;;;7402827;19;20027;-91
2022/08/03 10:07:44;;;;;;;11.63;2.80;;;26.20;99.90;;;;;;7400330;19;20016;-95
2022/08/03 10:10:11;;;;;;;8.80;2.83;;;26.20;99.90;;;;;;7402707;19;20014;-94
2022/08/03 10:12:39;;;;;;;10.45;2.40;;;26.40;99.90;;;;;;7400958;19;20038;-94
2022/08/03 10:15:05;;;;;;;8.40;2.92;;;26.40;99.90;;;;;;7404672;19;20031;-93
2022/08/03 10:17:32;;;;;;;7.50;2.15;;;26.60;99.90;;;;;;7407395;19;20383;-87
2022/08/03 10:19:58;;;;;;;8.95;1.98;;;26.70;99.90;;;;;;7401405;19;20037;-91
2022/08/03 10:22:32;;;;;;;5.97;1.95;;;26.80;99.90;;;;;;7398062;19;20010;-92
2022/08/03 10:25:10;;;;;;;9.38;2.38;;;26.90;99.90;;;;;;7399370;19;20038;-92
2022/08/03 10:27:39;;;;;;;7.93;2.22;;;26.90;99.90;;;;;;7397221;19;20479;-91
2022/08/03 10:30:07;;;;;;;9.35;2.30;;;27.00;99.90;;;;;;7398049;19;20483;-89
2022/08/03 10:32:51;;;;;;;6.22;1.92;;;27.00;99.90;;;;;;7398070;19;20014;-88
2022/08/03 10:35:22;;;;;;;8.75;2.63;;;27.00;99.90;;;;;;7398976;19;20019;-87
2022/08/03 10:38:07;;;;;;;7.53;2.10;;;27.20;99.90;;;;;;7401587;19;20010;-86
2022/08/03 10:40:35;;;;;;;6.05;2.00;;;27.20;99.90;;;;;;7397794;19;20030;-87
2022/08/03 10:43:26;;;;;;;12.18;1.95;;;27.10;99.90;;;;;;7397485;19;20022;-88
2022/08/03 10:45:53;;;;;;;8.07;2.13;;;27.20;99.90;;;;;;7400821;19;20113;-86
2022/08/03 10:48:19;;;;;;;6.18;1.85;;;27.20;99.90;;;;;;7399977;19;20022;-87
2022/08/03 10:50:48;;;;;;;7.53;2.08;;;27.10;99.90;;;;;;7398306;19;20014;-88
2022/08/03 10:53:14;;;;;;;8.00;2.38;;;27.10;99.90;;;;;;7399543;19;20022;-88
2022/08/03 10:58:38;;;;;;;8.90;2.50;;;26.90;99.90;;;;;;7400034;19;20042;-86
2022/08/03 11:01:05;;;;;;;8.95;2.17;;;27.10;99.90;;;;;;7397366;19;20089;-88
2022/08/03 11:03:51;;;;;;;6.22;2.53;;;27.20;99.90;;;;;;7397899;19;20010;-90
2022/08/03 11:06:25;;;;;;;6.32;2.03;;;27.20;99.90;;;;;;7397236;19;20006;-88
2022/08/03 11:09:11;;;;;;;5.43;1.80;;;27.30;99.90;;;;;;7398028;19;20025;-89
2022/08/03 11:11:38;;;;;;;6.15;2.20;;;27.40;99.90;;;;;;7394044;19;20027;-89
2022/08/03 11:14:10;;;;;;;10.43;2.55;;;27.50;99.90;;;;;;7399714;19;20026;-89
2022/08/03 11:16:47;;;;;;;7.67;2.30;;;27.50;99.90;;;;;;7398561;19;20477;-90
2022/08/03 11:19:15;;;;;;;10.88;2.90;;;27.70;99.90;;;;;;7396431;19;20028;-89
2022/08/03 11:21:48;;;;;;;7.40;1.95;;;27.80;99.90;;;;;;7395568;19;20018;-91
2022/08/03 11:24:35;;;;;;;7.13;1.92;;;27.80;99.90;;;;;;7397118;19;20135;-88
2022/08/03 11:27:16;;;;;;;5.45;1.85;;;27.90;99.90;;;;;;7400419;19;20018;-87
2022/08/03 11:30:00;;;;;;;6.00;1.73;;;27.90;99.90;;;;;;7394280;19;20014;-87
2022/08/03 11:32:38;;;;;;;7.78;2.13;;;27.70;99.90;;;;;;7398528;19;20483;-88
2022/08/03 11:35:17;;;;;;;11.07;2.78;;;27.60;99.90;;;;;;7397159;19;20022;-89
2022/08/03 11:38:04;;;;;;;8.35;2.08;;;27.70;99.90;;;;;;7398042;19;20103;-87
2022/08/03 11:40:35;;;;;;;10.95;2.30;;;27.70;99.90;;;;;;7398332;19;20022;-90
2022/08/03 11:43:03;;;;;;;9.50;2.17;;;27.80;99.90;;;;;;7399013;19;20394;-88
2022/08/03 11:45:30;;;;;;;8.02;2.05;;;27.90;99.90;;;;;;7394718;19;20509;-88
2022/08/03 11:47:57;;;;;;;8.50;2.03;;;27.90;99.90;;;;;;7398391;19;20014;-87
2022/08/03 11:50:24;;;;;;;11.70;2.28;;;27.90;99.90;;;;;;7399299;19;20014;-88
2022/08/03 11:52:50;;;;;;;8.73;2.30;;;27.70;99.90;;;;;;7395294;19;20021;-88
2022/08/03 11:55:20;;;;;;;10.23;2.22;;;27.60;99.90;;;;;;7397311;19;20041;-87
2022/08/03 11:57:47;;;;;;;10.43;2.83;;;27.60;99.90;;;;;;7398566;19;20349;-89
2022/08/03 12:00:29;;;;;;;10.85;2.67;;;27.70;99.90;;;;;;7397040;19;20073;-89
2022/08/03 12:02:59;;;;;;;9.57;2.38;;;27.90;99.90;;;;;;7398944;19;20018;-87
2022/08/03 12:05:53;;;;;;;9.60;2.72;;;27.80;99.90;;;;;;7397690;19;20582;-87
2022/08/03 12:08:26;;;;;;;11.10;2.33;;;27.70;99.90;;;;;;7396836;19;20022;-88
2022/08/03 12:10:53;;;;;;;5.83;2.30;;;27.70;99.90;;;;;;7390404;19;20074;-88
2022/08/03 12:13:22;;;;;;;9.35;2.42;;;27.70;99.90;;;;;;7394641;19;20032;-87
2022/08/03 12:15:57;;;;;;;7.88;1.85;;;27.80;99.90;;;;;;7395647;19;20419;-87
2022/08/03 12:18:24;;;;;;;14.10;2.90;;;27.80;99.90;;;;;;7392752;19;20019;-87
2022/08/03 12:20:52;;;;;;;15.43;2.80;;;27.90;99.90;;;;;;7397593;19;20018;-87
2022/08/03 12:23:19;;;;;;;13.10;2.35;;;28.00;99.90;;;;;;7396453;19;20037;-87
2022/08/03 12:25:46;;;;;;;11.43;2.42;;;28.10;99.90;;;;;;7395345;19;20007;-88
2022/08/03 12:28:22;;;;;;;8.73;2.53;;;28.10;99.90;;;;;;7394900;19;20048;-86
2022/08/03 12:30:50;;;;;;;10.45;2.30;;;28.10;99.90;;;;;;7398450;19;20545;-88
2022/08/03 12:33:26;;;;;;;9.75;2.28;;;28.00;99.90;;;;;;7398177;19;20074;-87
2022/08/03 12:36:09;;;;;;;13.70;2.40;;;27.90;99.90;;;;;;7394529;19;20022;-87
2022/08/03 12:38:37;;;;;;;13.98;3.03;;;27.90;99.90;;;;;;7397797;19;20086;-87
2022/08/03 12:41:12;;;;;;;10.05;2.33;;;27.80;99.90;;;;;;7396823;19;20019;-87
2022/08/03 12:43:50;;;;;;;11.88;2.75;;;27.60;99.90;;;;;;7394425;19;20019;-88
2022/08/03 12:46:18;;;;;;;11.15;3.00;;;27.70;99.90;;;;;;7394411;19;20010;-88
2022/08/03 12:49:17;;;;;;;9.10;2.10;;;27.70;99.90;;;;;;7394332;19;20015;-87
2022/08/03 12:51:43;;;;;;;9.82;2.65;;;27.60;99.90;;;;;;7396109;19;20456;-87
2022/08/03 12:54:19;;;;;;;11.85;2.55;;;27.70;99.90;;;;;;7398583;19;20018;-87
2022/08/03 12:57:02;;;;;;;8.80;2.10;;;27.70;99.90;;;;;;7395012;19;20082;-88
2022/08/03 12:59:41;;;;;;;11.10;2.50;;;27.80;99.90;;;;;;7397958;19;20483;-87
2022/08/03 13:02:21;;;;;;;12.77;2.78;;;27.60;99.90;;;;;;7396461;19;20018;-87